LDY weather

City of Derry Airport
Derry, Northern Ireland, United Kingdom

Public forecast

Using degrees Celsius for public forecast. Weather courtesy of forecast.io.

Current aviation weather report (METAR) for City of Derry Airport

Report is more than 6 hours old.

Retrieved 2020/07/11 13:50 UTC (7 hours ago):

EGAE 111350Z 29010KT 9999 FEW030 BKN039 17/09 Q1027

Closest aviation forecast (TAF) to City of Derry Airport

Closest forecast is Belfast International Airport, 40.0 nm (74.1 km) SE. Retrieved 2020/07/11 18:00 UTC (3 hours ago):

TAF EGAA 111656Z 1118/1218 26008KT 9999 FEW025 SCT045 BECMG 1210/1212 19010KT PROB30 TEMPO 1217/1218 7000 RA